Time;durP1;ratioP1;P1;durP2;ratioP2;P2;SDS_P1;SDS_P2;PMS_P1;PMS_P2;Temp;Humidity;BMP_temperature;BMP_pressure;BME280_temperature;BME280_humidity;BME280_pressure;Samples;Min_cycle;Max_cycle;Signal;HPM_P1;HPM_P2
2023/03/09 00:01:31;;;;;;;30.67;19.70;;;1.50;99.90;;;;;;2612833;54;20381;-72
2023/03/09 00:07:18;;;;;;;28.53;18.03;;;1.50;99.90;;;;;;2613574;54;20506;-71
2023/03/09 00:13:06;;;;;;;29.77;17.97;;;1.50;99.90;;;;;;2614992;54;20138;-71
2023/03/09 00:22:56;;;;;;;25.40;16.97;;;1.40;99.90;;;;;;2613249;54;20472;-70
2023/03/09 00:28:44;;;;;;;26.30;16.17;;;1.50;99.90;;;;;;2612201;54;20370;-71
2023/03/09 00:34:32;;;;;;;24.23;16.53;;;1.50;99.90;;;;;;2612940;54;20146;-71
2023/03/09 00:40:19;;;;;;;28.83;18.17;;;1.50;99.90;;;;;;2613503;39;20618;-71
2023/03/09 00:46:07;;;;;;;33.60;19.83;;;1.50;99.90;;;;;;2614162;54;20149;-71
2023/03/09 00:51:55;;;;;;;33.50;18.70;;;1.50;99.90;;;;;;2612676;54;20135;-70
2023/03/09 00:57:43;;;;;;;30.53;18.33;;;1.50;99.90;;;;;;2613416;54;20178;-71
2023/03/09 01:03:30;;;;;;;31.63;19.03;;;1.50;99.90;;;;;;2614522;54;20130;-71
2023/03/09 01:09:18;;;;;;;29.90;18.87;;;1.50;99.90;;;;;;2613814;54;21774;-71
2023/03/09 01:15:07;;;;;;;36.40;21.70;;;1.50;99.90;;;;;;2614261;54;20154;-71
2023/03/09 01:18:25;;;;;;;36.47;22.10;;;1.50;99.90;;;;;;2614790;39;20781;-71
2023/03/09 01:20:50;;;;;;;38.53;22.10;;;1.50;99.90;;;;;;2612866;54;20428;-70
2023/03/09 01:26:38;;;;;;;45.83;25.53;;;1.50;99.90;;;;;;2613879;39;20275;-71
2023/03/09 01:32:26;;;;;;;50.23;27.40;;;1.60;99.90;;;;;;2613472;54;20133;-71
2023/03/09 01:38:14;;;;;;;44.97;25.00;;;1.50;99.90;;;;;;2614838;54;20483;-71
2023/03/09 01:44:01;;;;;;;41.37;23.97;;;1.50;99.90;;;;;;2613512;54;20367;-71
2023/03/09 01:49:50;;;;;;;37.23;23.30;;;1.50;99.90;;;;;;2614460;54;20497;-70
2023/03/09 01:55:44;;;;;;;36.73;21.50;;;1.40;99.90;;;;;;2612292;54;20408;-71
2023/03/09 02:01:32;;;;;;;40.47;26.43;;;1.50;99.90;;;;;;2613429;54;20367;-71
2023/03/09 02:07:22;;;;;;;32.50;21.33;;;1.50;99.90;;;;;;2611092;39;20360;-71
2023/03/09 02:13:15;;;;;;;34.43;22.30;;;1.50;99.90;;;;;;2613446;54;20440;-71
2023/03/09 02:22:56;;;;;;;40.40;21.10;;;1.50;99.90;;;;;;2606612;54;20563;-70
2023/03/09 02:28:43;;;;;;;34.17;20.93;;;1.50;99.90;;;;;;2611588;54;20383;-71
2023/03/09 02:34:31;;;;;;;38.70;21.87;;;1.50;99.90;;;;;;2611052;54;20146;-70
2023/03/09 02:46:52;;;;;;;41.47;22.30;;;1.50;99.90;;;;;;2613847;54;20367;-71
2023/03/09 02:52:40;;;;;;;39.03;22.30;;;1.50;99.90;;;;;;2612734;54;20158;-70
2023/03/09 02:58:28;;;;;;;38.67;22.03;;;1.50;99.90;;;;;;2611202;54;20252;-70
2023/03/09 03:04:16;;;;;;;38.40;20.67;;;1.50;99.90;;;;;;2615584;39;20536;-70
2023/03/09 03:10:04;;;;;;;32.60;20.67;;;1.60;99.90;;;;;;2613742;54;20267;-71
2023/03/09 03:15:58;;;;;;;32.33;21.80;;;1.60;99.90;;;;;;2612675;54;20416;-70
2023/03/09 03:25:08;;;;;;;36.17;23.43;;;1.60;99.90;;;;;;2613928;39;20765;-70
2023/03/09 03:30:56;;;;;;;31.40;20.40;;;1.70;99.90;;;;;;2611996;54;20170;-71
2023/03/09 03:36:43;;;;;;;34.53;21.87;;;1.60;99.90;;;;;;2612273;39;20918;-70
2023/03/09 03:42:31;;;;;;;37.57;23.27;;;1.60;99.90;;;;;;2613243;54;20119;-70
2023/03/09 03:48:19;;;;;;;36.43;23.77;;;1.60;99.90;;;;;;2614339;54;20130;-70
2023/03/09 03:54:06;;;;;;;37.23;23.27;;;1.60;99.90;;;;;;2613391;54;20235;-71
2023/03/09 03:59:54;;;;;;;38.87;25.30;;;1.60;99.90;;;;;;2612716;54;20126;-71
2023/03/09 04:05:42;;;;;;;40.57;23.00;;;1.70;99.90;;;;;;2614086;54;20134;-72
2023/03/09 04:11:29;;;;;;;42.00;23.13;;;1.60;99.90;;;;;;2613217;54;20218;-72
2023/03/09 04:17:17;;;;;;;46.00;25.83;;;1.60;99.90;;;;;;2614236;54;20131;-71
2023/03/09 04:20:22;;;;;;;44.37;26.70;;;1.60;99.90;;;;;;2611576;54;20420;-71
2023/03/09 04:22:49;;;;;;;41.93;22.50;;;1.60;99.90;;;;;;2613574;54;20692;-71
2023/03/09 04:28:36;;;;;;;44.87;25.87;;;1.60;99.90;;;;;;2612869;54;20370;-72
2023/03/09 04:34:24;;;;;;;42.27;25.90;;;1.60;99.90;;;;;;2613633;54;20126;-72
2023/03/09 04:40:12;;;;;;;46.83;25.10;;;1.60;99.90;;;;;;2613731;31;20567;-72
2023/03/09 04:46:00;;;;;;;45.33;27.13;;;1.60;99.90;;;;;;2612910;54;21012;-71
2023/03/09 04:51:48;;;;;;;46.90;26.40;;;1.60;99.90;;;;;;2613897;54;20130;-73
2023/03/09 04:57:35;;;;;;;44.83;25.53;;;1.60;99.90;;;;;;2613975;54;20661;-71
2023/03/09 05:03:23;;;;;;;44.57;25.37;;;1.60;99.90;;;;;;2613500;39;20534;-72
2023/03/09 05:09:12;;;;;;;44.03;25.17;;;1.60;99.90;;;;;;2612707;54;20126;-72
2023/03/09 05:15:00;;;;;;;41.73;25.97;;;1.60;99.90;;;;;;2612215;54;20480;-72
2023/03/09 05:24:57;;;;;;;48.73;26.27;;;1.60;99.90;;;;;;2613722;54;20378;-71
2023/03/09 05:30:44;;;;;;;42.50;25.97;;;1.60;99.90;;;;;;2613320;54;20923;-71
2023/03/09 05:36:32;;;;;;;51.67;27.20;;;1.60;99.90;;;;;;2613847;54;20121;-72
2023/03/09 05:42:20;;;;;;;48.87;27.23;;;1.60;99.90;;;;;;2613574;39;20620;-71
2023/03/09 05:48:07;;;;;;;51.47;28.27;;;1.60;99.90;;;;;;2612520;54;20158;-71
2023/03/09 05:53:55;;;;;;;53.90;28.57;;;1.60;99.90;;;;;;2612632;54;20147;-71
2023/03/09 05:59:43;;;;;;;50.93;29.00;;;1.60;99.90;;;;;;2611506;54;20218;-72
2023/03/09 06:05:31;;;;;;;64.33;28.83;;;1.60;99.90;;;;;;2612737;54;20178;-72
2023/03/09 06:11:19;;;;;;;53.73;27.50;;;1.60;99.90;;;;;;2613190;54;20126;-71
2023/03/09 06:17:06;;;;;;;62.33;31.53;;;1.60;99.90;;;;;;2609011;54;20277;-72
2023/03/09 06:20:26;;;;;;;53.60;26.80;;;1.60;99.90;;;;;;2609282;54;20415;-73
2023/03/09 06:22:51;;;;;;;54.30;29.47;;;1.60;99.90;;;;;;2612855;39;20570;-72
2023/03/09 06:28:39;;;;;;;60.20;32.23;;;1.70;99.90;;;;;;2613496;54;20150;-73
2023/03/09 06:34:31;;;;;;;64.63;29.60;;;1.70;99.90;;;;;;2613805;54;20430;-71
2023/03/09 06:40:18;;;;;;;65.97;33.57;;;1.70;99.90;;;;;;2613678;47;20794;-72
2023/03/09 06:46:08;;;;;;;73.23;33.43;;;1.80;99.90;;;;;;2614035;54;20166;-72
2023/03/09 06:51:57;;;;;;;59.93;29.40;;;1.80;99.90;;;;;;2613587;46;20434;-72
2023/03/09 06:57:44;;;;;;;64.97;34.40;;;1.80;99.90;;;;;;2613586;54;20556;-70
2023/03/09 07:03:32;;;;;;;65.60;30.13;;;2.00;99.90;;;;;;2613775;54;20759;-72
2023/03/09 07:09:20;;;;;;;59.77;31.87;;;2.10;99.90;;;;;;2608807;39;20580;-72
2023/03/09 07:15:10;;;;;;;72.30;32.27;;;2.10;99.90;;;;;;2610066;54;20150;-72
2023/03/09 07:31:20;;;;;;;60.53;31.50;;;2.30;99.90;;;;;;2612080;39;20513;-72
2023/03/09 07:37:08;;;;;;;57.27;30.23;;;2.30;99.90;;;;;;2612780;39;20742;-72
2023/03/09 07:42:55;;;;;;;54.50;29.73;;;2.40;99.90;;;;;;2613197;39;20703;-73
2023/03/09 07:48:43;;;;;;;62.63;31.63;;;2.40;99.90;;;;;;2612969;54;20125;-71
2023/03/09 07:54:30;;;;;;;62.93;30.73;;;2.40;99.90;;;;;;2612855;54;20391;-72
2023/03/09 08:00:22;;;;;;;53.07;31.67;;;2.40;99.90;;;;;;2612314;39;20717;-71
2023/03/09 08:06:10;;;;;;;64.23;33.90;;;2.40;99.90;;;;;;2614619;54;20427;-72
2023/03/09 08:11:58;;;;;;;71.03;33.50;;;2.50;99.90;;;;;;2614821;39;20909;-72
2023/03/09 08:17:46;;;;;;;65.70;33.70;;;2.50;99.90;;;;;;2614141;54;20150;-71
2023/03/09 08:20:26;;;;;;;63.67;30.37;;;2.50;99.90;;;;;;2612263;54;20969;-70
2023/03/09 08:22:52;;;;;;;59.37;29.73;;;2.50;99.90;;;;;;2613050;47;20404;-72
2023/03/09 08:28:41;;;;;;;73.07;32.53;;;2.80;99.90;;;;;;2610848;54;20126;-71
2023/03/09 08:31:25;;;;;;;68.57;36.00;;;2.70;99.90;;;;;;2613096;54;20422;-71
2023/03/09 08:33:51;;;;;;;72.43;35.60;;;2.80;99.90;;;;;;2611201;54;20443;-72
2023/03/09 08:39:38;;;;;;;74.30;34.47;;;2.80;99.90;;;;;;2614015;54;20154;-71
2023/03/09 08:45:26;;;;;;;68.33;34.70;;;2.80;99.90;;;;;;2614221;39;20493;-70
2023/03/09 08:51:14;;;;;;;72.23;33.33;;;2.80;99.90;;;;;;2614251;39;20443;-72
2023/03/09 08:57:02;;;;;;;62.77;34.30;;;3.10;99.90;;;;;;2612600;54;20358;-71
2023/03/09 08:59:49;;;;;;;66.93;32.17;;;3.00;99.90;;;;;;2612119;54;20923;-71
2023/03/09 09:02:15;;;;;;;62.87;35.43;;;3.10;99.90;;;;;;2612864;39;20661;-71
2023/03/09 09:08:03;;;;;;;67.63;34.40;;;3.10;99.90;;;;;;2613458;39;20539;-72
2023/03/09 09:13:54;;;;;;;64.33;36.50;;;3.20;99.90;;;;;;2613340;54;20386;-72
2023/03/09 09:19:42;;;;;;;56.37;34.13;;;3.20;99.90;;;;;;2613589;54;20387;-70
2023/03/09 09:25:30;;;;;;;68.60;35.37;;;3.40;99.90;;;;;;2612355;54;20234;-71
2023/03/09 09:31:23;;;;;;;61.10;32.70;;;3.50;99.90;;;;;;2611448;54;21838;-71
2023/03/09 09:37:11;;;;;;;58.20;32.23;;;3.40;99.90;;;;;;2610551;54;20396;-71
2023/03/09 09:42:59;;;;;;;53.13;28.57;;;3.70;99.90;;;;;;2613668;54;20377;-71
2023/03/09 09:48:48;;;;;;;51.10;29.23;;;3.80;99.90;;;;;;2614032;54;20129;-71
2023/03/09 09:54:39;;;;;;;50.40;29.87;;;3.80;99.90;;;;;;2612698;54;20435;-71
2023/03/09 10:00:34;;;;;;;42.87;24.50;;;4.30;99.90;;;;;;2612530;39;21256;-71
2023/03/09 10:06:24;;;;;;;44.07;27.20;;;4.40;99.90;;;;;;2613864;31;20925;-70
2023/03/09 10:12:19;;;;;;;48.70;27.43;;;4.30;99.90;;;;;;2613073;54;20619;-71
2023/03/09 10:18:16;;;;;;;50.33;29.10;;;4.10;99.90;;;;;;2613441;54;20954;-70
2023/03/09 10:24:23;;;;;;;46.07;28.20;;;4.40;99.90;;;;;;2609783;54;20430;-71
2023/03/09 10:27:25;;;;;;;51.17;29.93;;;4.40;99.90;;;;;;2613658;54;20399;-71
2023/03/09 10:46:21;;;;;;;56.90;30.93;;;4.90;99.90;;;;;;2612214;46;20375;-71
2023/03/09 10:58:41;;;;;;;54.07;29.27;;;4.80;99.90;;;;;;2610840;54;20393;-71
2023/03/09 11:04:32;;;;;;;62.27;34.50;;;4.90;99.90;;;;;;2610090;46;20149;-71
2023/03/09 11:10:31;;;;;;;65.50;36.57;;;4.70;99.90;;;;;;2611903;54;20359;-71
2023/03/09 11:16:36;;;;;;;63.40;36.30;;;5.10;99.90;;;;;;2612783;54;20399;-71
2023/03/09 11:22:25;;;;;;;55.13;32.33;;;4.70;99.90;;;;;;2611833;54;20383;-71
2023/03/09 11:28:30;;;;;;;53.83;33.80;;;4.70;99.90;;;;;;2612176;54;20367;-71
2023/03/09 12:00:28;;;;;;;49.03;30.97;;;5.10;99.90;;;;;;2613159;54;20398;-70
2023/03/09 12:19:25;;;;;;;46.67;28.23;;;5.40;99.90;;;;;;2612017;54;20944;-70
2023/03/09 12:25:19;;;;;;;47.77;28.47;;;5.30;99.90;;;;;;2610258;39;20827;-71
2023/03/09 12:44:47;;;;;;;43.53;26.90;;;5.70;99.90;;;;;;2609623;54;20379;-71
2023/03/09 12:50:46;;;;;;;36.80;24.07;;;6.00;99.90;;;;;;2608422;54;20375;-69
2023/03/09 12:56:37;;;;;;;38.20;23.77;;;5.70;99.90;;;;;;2609734;54;20447;-70
2023/03/09 13:02:33;;;;;;;48.37;26.03;;;5.80;99.90;;;;;;2608739;54;20362;-70
2023/03/09 13:08:38;;;;;;;42.83;28.60;;;5.70;99.90;;;;;;2607488;54;21079;-70
2023/03/09 13:14:24;;;;;;;41.67;24.70;;;5.60;99.90;;;;;;2608916;54;20380;-70
2023/03/09 13:30:24;;;;;;;44.67;27.80;;;5.50;99.90;;;;;;2608322;54;20410;-72
2023/03/09 13:36:23;;;;;;;45.20;26.47;;;5.30;99.90;;;;;;2609631;54;20395;-72
2023/03/09 13:42:16;;;;;;;43.63;26.10;;;5.30;99.90;;;;;;2608373;54;20933;-72
2023/03/09 13:48:11;;;;;;;42.67;27.13;;;5.40;99.90;;;;;;2610920;54;20399;-72
2023/03/09 13:53:59;;;;;;;40.33;24.27;;;5.30;99.90;;;;;;2610460;54;21012;-72
2023/03/09 13:59:58;;;;;;;40.33;24.80;;;5.50;99.90;;;;;;2610413;54;20154;-73
2023/03/09 14:18:52;;;;;;;44.83;25.50;;;5.30;99.90;;;;;;2611855;54;20367;-73
2023/03/09 14:24:40;;;;;;;42.03;26.53;;;5.20;99.90;;;;;;2612407;54;20391;-73
2023/03/09 14:36:57;;;;;;;39.90;23.20;;;5.30;99.90;;;;;;2609613;54;20363;-73
2023/03/09 14:42:44;;;;;;;36.07;23.70;;;5.40;99.90;;;;;;2610029;39;20748;-73
2023/03/09 14:48:32;;;;;;;42.17;23.37;;;5.40;99.90;;;;;;2609607;54;20165;-74
2023/03/09 14:54:20;;;;;;;42.20;26.27;;;5.20;99.90;;;;;;2609187;54;20199;-73
2023/03/09 15:06:39;;;;;;;40.73;22.70;;;5.40;99.90;;;;;;2609408;54;20415;-73
2023/03/09 15:12:27;;;;;;;39.37;21.60;;;5.50;99.90;;;;;;2609847;39;20814;-73
2023/03/09 15:18:14;;;;;;;40.13;23.77;;;5.70;99.90;;;;;;2610009;54;20135;-73
2023/03/09 15:24:03;;;;;;;37.53;21.53;;;6.10;99.90;;;;;;2609663;54;20223;-72
2023/03/09 15:29:50;;;;;;;36.33;20.20;;;6.30;99.90;;;;;;2608403;54;20138;-72
2023/03/09 15:35:41;;;;;;;35.07;21.93;;;6.40;99.90;;;;;;2607189;54;20126;-72
2023/03/09 15:41:29;;;;;;;32.37;20.17;;;6.30;99.90;;;;;;2608226;54;20410;-71
2023/03/09 15:47:16;;;;;;;28.70;18.03;;;6.40;99.90;;;;;;2609848;54;20162;-72
2023/03/09 15:53:06;;;;;;;27.43;17.40;;;6.50;99.90;;;;;;2605027;54;20998;-71
2023/03/09 15:58:53;;;;;;;23.00;15.07;;;6.50;99.90;;;;;;2609948;54;20370;-71
2023/03/09 16:04:41;;;;;;;24.97;17.90;;;6.50;99.90;;;;;;2610716;54;20207;-72
2023/03/09 16:10:29;;;;;;;28.00;16.80;;;6.30;99.90;;;;;;2609902;54;20188;-71
2023/03/09 16:16:17;;;;;;;20.87;15.00;;;6.30;99.90;;;;;;2613531;39;20599;-71
2023/03/09 16:22:04;;;;;;;23.90;17.53;;;6.40;99.90;;;;;;2611742;54;20126;-71
2023/03/09 16:24:48;;;;;;;25.87;18.53;;;6.40;99.90;;;;;;2610254;54;20423;-70
2023/03/09 16:27:14;;;;;;;25.37;17.97;;;6.40;99.90;;;;;;2610250;54;20155;-71
2023/03/09 16:33:02;;;;;;;35.73;22.67;;;6.20;99.90;;;;;;2608360;54;20133;-71
2023/03/09 16:38:50;;;;;;;28.63;17.83;;;6.10;99.90;;;;;;2609413;54;20984;-72
2023/03/09 16:44:45;;;;;;;39.33;22.73;;;6.10;99.90;;;;;;2611520;54;20375;-73
2023/03/09 16:50:32;;;;;;;37.20;21.93;;;6.00;99.90;;;;;;2610025;54;20419;-71
2023/03/09 16:56:22;;;;;;;30.60;20.40;;;5.90;99.90;;;;;;2612203;54;20138;-73
2023/03/09 17:02:09;;;;;;;36.80;22.50;;;5.60;99.90;;;;;;2605698;54;20407;-73
2023/03/09 17:07:57;;;;;;;37.77;23.60;;;5.50;99.90;;;;;;2612686;54;20496;-72
2023/03/09 17:13:48;;;;;;;35.60;21.17;;;5.30;99.90;;;;;;2608849;46;20146;-73
2023/03/09 17:19:36;;;;;;;41.23;25.20;;;5.20;99.90;;;;;;2609347;54;20399;-73
2023/03/09 17:29:17;;;;;;;44.90;23.03;;;5.10;99.90;;;;;;2606966;54;20394;-72
2023/03/09 17:35:08;;;;;;;39.30;22.37;;;5.00;99.90;;;;;;2612385;54;20430;-72
2023/03/09 17:40:55;;;;;;;39.00;23.63;;;5.00;99.90;;;;;;2612844;54;21007;-72
2023/03/09 17:46:44;;;;;;;35.90;20.80;;;4.90;99.90;;;;;;2613825;54;20712;-72
2023/03/09 17:52:31;;;;;;;34.47;20.87;;;4.90;99.90;;;;;;2613776;54;20147;-72
2023/03/09 17:55:34;;;;;;;48.50;23.43;;;4.90;99.90;;;;;;2613854;54;20530;-72
2023/03/09 17:58:00;;;;;;;40.63;22.90;;;4.90;99.90;;;;;;2612815;54;21582;-72
2023/03/09 18:03:47;;;;;;;39.93;23.43;;;4.80;99.90;;;;;;2611534;54;20134;-71
2023/03/09 18:09:35;;;;;;;48.67;25.37;;;4.90;99.90;;;;;;2611631;39;20557;-72
2023/03/09 18:15:24;;;;;;;40.70;23.60;;;4.90;99.90;;;;;;2611797;54;20126;-72
2023/03/09 18:21:12;;;;;;;39.03;23.40;;;5.10;99.90;;;;;;2612069;54;20440;-71
2023/03/09 18:27:00;;;;;;;42.90;23.97;;;5.10;99.90;;;;;;2610451;54;20952;-72
2023/03/09 18:32:48;;;;;;;45.50;23.60;;;5.20;99.90;;;;;;2610724;54;20722;-72
2023/03/09 18:38:36;;;;;;;40.93;22.83;;;5.20;99.90;;;;;;2613350;54;20135;-72
2023/03/09 18:44:24;;;;;;;37.57;23.30;;;5.20;99.90;;;;;;2609466;54;20391;-72
2023/03/09 18:50:12;;;;;;;39.57;20.40;;;5.20;99.90;;;;;;2612085;54;20145;-71
2023/03/09 18:56:02;;;;;;;39.10;22.43;;;5.20;99.90;;;;;;2609346;54;20988;-72
2023/03/09 19:01:50;;;;;;;37.53;22.73;;;5.30;99.90;;;;;;2609367;54;20371;-72
2023/03/09 19:07:37;;;;;;;42.20;24.73;;;5.30;99.90;;;;;;2610359;54;20644;-73
2023/03/09 19:13:25;;;;;;;35.63;21.33;;;5.40;99.90;;;;;;2608010;54;20122;-72
2023/03/09 19:19:13;;;;;;;40.63;20.50;;;5.40;99.90;;;;;;2610688;54;20255;-72
2023/03/09 19:29:19;;;;;;;43.07;22.27;;;5.50;99.90;;;;;;2612224;54;20962;-72
2023/03/09 19:35:07;;;;;;;36.63;23.63;;;5.60;99.90;;;;;;2608592;46;20430;-73
2023/03/09 19:47:28;;;;;;;38.30;25.77;;;5.50;99.90;;;;;;2606038;54;20534;-73
2023/03/09 19:53:17;;;;;;;44.20;27.83;;;5.50;99.90;;;;;;2608714;54;20404;-73
2023/03/09 19:59:07;;;;;;;40.43;26.47;;;5.50;99.90;;;;;;2608767;54;20424;-72
2023/03/09 20:04:56;;;;;;;43.30;27.73;;;5.50;99.90;;;;;;2611918;54;20411;-73
2023/03/09 20:10:44;;;;;;;40.70;27.83;;;5.60;99.90;;;;;;2611177;54;20414;-72
2023/03/09 20:16:35;;;;;;;33.97;20.50;;;5.90;99.90;;;;;;2612260;54;20139;-73
2023/03/09 20:22:23;;;;;;;19.33;9.40;;;7.10;99.90;;;;;;2613052;54;20383;-72
2023/03/09 20:31:40;;;;;;;23.90;7.93;;;8.30;99.90;;;;;;2613269;54;20507;-72
2023/03/09 20:37:28;;;;;;;25.73;8.00;;;8.70;99.90;;;;;;2613271;54;20383;-73
2023/03/09 20:43:16;;;;;;;27.83;7.10;;;8.80;99.90;;;;;;2613731;39;20525;-72
2023/03/09 20:49:04;;;;;;;23.53;6.80;;;8.90;99.90;;;;;;2612684;54;20151;-73
2023/03/09 20:54:51;;;;;;;32.63;9.30;;;9.20;99.90;;;;;;2613478;54;20134;-72
2023/03/09 21:00:40;;;;;;;18.03;8.43;;;9.20;99.90;;;;;;2610788;39;20528;-73
2023/03/09 21:06:28;;;;;;;32.43;7.60;;;9.20;99.90;;;;;;2612442;39;20593;-72
2023/03/09 21:12:15;;;;;;;23.93;8.43;;;9.30;99.90;;;;;;2612621;54;20970;-73
2023/03/09 21:18:03;;;;;;;10.57;4.50;;;9.30;99.90;;;;;;2613198;54;20142;-73
2023/03/09 21:23:52;;;;;;;27.83;10.40;;;9.40;99.90;;;;;;2613999;39;20302;-73
2023/03/09 21:27:04;;;;;;;22.10;10.53;;;9.50;99.90;;;;;;2612267;54;20403;-73
2023/03/09 21:29:31;;;;;;;29.37;10.47;;;9.60;99.90;;;;;;2612177;54;20428;-73
2023/03/09 21:35:24;;;;;;;27.67;7.77;;;9.70;99.90;;;;;;2612740;54;20407;-73
2023/03/09 21:41:12;;;;;;;16.40;4.87;;;9.80;99.90;;;;;;2608368;54;20467;-72
2023/03/09 21:47:00;;;;;;;20.13;5.97;;;9.70;99.90;;;;;;2612464;39;20944;-73
2023/03/09 21:52:47;;;;;;;19.70;5.37;;;9.70;99.90;;;;;;2611674;54;20126;-72
2023/03/09 21:58:35;;;;;;;12.93;5.47;;;9.70;99.90;;;;;;2606346;54;20713;-73
2023/03/09 22:04:23;;;;;;;18.77;5.30;;;9.80;99.90;;;;;;2612296;54;20130;-72
2023/03/09 22:10:11;;;;;;;16.77;5.83;;;9.80;99.90;;;;;;2610897;54;20150;-73
2023/03/09 22:15:59;;;;;;;20.93;7.37;;;9.80;99.90;;;;;;2612168;54;20403;-73
2023/03/09 22:21:47;;;;;;;9.23;5.50;;;9.80;99.90;;;;;;2612058;54;20145;-73
2023/03/09 22:31:37;;;;;;;17.17;4.93;;;9.60;99.90;;;;;;2608956;54;20471;-73
2023/03/09 22:37:24;;;;;;;25.93;4.90;;;9.80;99.90;;;;;;2611358;54;20400;-73
2023/03/09 22:43:12;;;;;;;10.97;5.00;;;9.60;99.90;;;;;;2611984;54;20138;-73
2023/03/09 22:48:59;;;;;;;17.73;5.30;;;9.60;99.90;;;;;;2610871;54;20314;-73
2023/03/09 22:54:47;;;;;;;13.87;5.33;;;9.70;99.90;;;;;;2611724;54;20125;-73
2023/03/09 23:00:35;;;;;;;12.10;4.63;;;9.60;99.90;;;;;;2611766;54;20395;-73
2023/03/09 23:06:26;;;;;;;18.13;7.50;;;9.60;99.90;;;;;;2613472;39;20541;-73
2023/03/09 23:12:13;;;;;;;12.33;4.10;;;9.60;99.90;;;;;;2612284;54;20363;-73
2023/03/09 23:18:01;;;;;;;12.00;3.97;;;9.60;99.90;;;;;;2612213;54;20588;-73
2023/03/09 23:23:52;;;;;;;10.00;4.87;;;9.60;99.90;;;;;;2613117;54;20174;-72
2023/03/09 23:27:04;;;;;;;15.20;3.97;;;9.60;99.90;;;;;;2612302;54;20492;-73
2023/03/09 23:29:29;;;;;;;13.50;4.27;;;9.60;99.90;;;;;;2610614;54;20435;-73
2023/03/09 23:35:18;;;;;;;13.33;4.07;;;9.70;99.90;;;;;;2611796;54;20255;-73
2023/03/09 23:41:11;;;;;;;13.30;3.80;;;9.70;99.90;;;;;;2612086;54;20137;-72
2023/03/09 23:46:58;;;;;;;9.73;3.10;;;9.80;99.90;;;;;;2610517;54;20363;-72
2023/03/09 23:52:46;;;;;;;5.00;2.87;;;9.80;99.90;;;;;;2612520;54;20142;-73
2023/03/09 23:55:50;;;;;;;9.27;2.63;;;9.70;99.90;;;;;;2610811;54;20970;-73
2023/03/09 23:58:17;;;;;;;14.37;3.47;;;9.70;99.90;;;;;;2610945;31;20597;-72
